sensor_id;sensor_type;location;lat;lon;timestamp;P1;durP1;ratioP1;P2;durP2;ratioP2
6689;SDS011;76797;51.590;8.116;2024-03-08T00:01:55;30.30;;;24.47;;
6689;SDS011;76797;51.590;8.116;2024-03-08T00:04:21;36.00;;;23.97;;
6689;SDS011;76797;51.590;8.116;2024-03-08T00:06:46;29.43;;;23.70;;
6689;SDS011;76797;51.590;8.116;2024-03-08T00:09:12;29.50;;;23.50;;
6689;SDS011;76797;51.590;8.116;2024-03-08T00:11:38;29.27;;;24.67;;
6689;SDS011;76797;51.590;8.116;2024-03-08T00:14:04;31.63;;;24.83;;
6689;SDS011;76797;51.590;8.116;2024-03-08T00:16:33;32.17;;;25.77;;
6689;SDS011;76797;51.590;8.116;2024-03-08T00:19:00;30.37;;;24.80;;
6689;SDS011;76797;51.590;8.116;2024-03-08T00:21:26;30.00;;;25.53;;
6689;SDS011;76797;51.590;8.116;2024-03-08T00:23:54;33.77;;;26.10;;
6689;SDS011;76797;51.590;8.116;2024-03-08T00:26:19;28.83;;;23.80;;
6689;SDS011;76797;51.590;8.116;2024-03-08T00:28:47;32.07;;;25.30;;
6689;SDS011;76797;51.590;8.116;2024-03-08T00:31:13;30.77;;;26.07;;
6689;SDS011;76797;51.590;8.116;2024-03-08T00:33:40;30.57;;;25.57;;
6689;SDS011;76797;51.590;8.116;2024-03-08T00:36:06;28.13;;;24.37;;
6689;SDS011;76797;51.590;8.116;2024-03-08T00:38:32;28.87;;;25.43;;
6689;SDS011;76797;51.590;8.116;2024-03-08T00:40:59;32.07;;;25.17;;
6689;SDS011;76797;51.590;8.116;2024-03-08T00:43:24;29.63;;;25.70;;
6689;SDS011;76797;51.590;8.116;2024-03-08T00:45:50;30.10;;;25.37;;
6689;SDS011;76797;51.590;8.116;2024-03-08T00:48:16;34.10;;;25.90;;
6689;SDS011;76797;51.590;8.116;2024-03-08T00:50:42;29.50;;;25.87;;
6689;SDS011;76797;51.590;8.116;2024-03-08T00:53:10;30.27;;;26.00;;
6689;SDS011;76797;51.590;8.116;2024-03-08T00:55:36;30.67;;;26.20;;
6689;SDS011;76797;51.590;8.116;2024-03-08T00:58:03;31.53;;;26.83;;
6689;SDS011;76797;51.590;8.116;2024-03-08T01:00:29;32.60;;;26.70;;
6689;SDS011;76797;51.590;8.116;2024-03-08T01:02:54;32.87;;;26.97;;
6689;SDS011;76797;51.590;8.116;2024-03-08T01:05:20;32.33;;;27.03;;
6689;SDS011;76797;51.590;8.116;2024-03-08T01:07:46;31.03;;;26.97;;
6689;SDS011;76797;51.590;8.116;2024-03-08T01:10:11;33.03;;;27.57;;
6689;SDS011;76797;51.590;8.116;2024-03-08T01:12:37;31.73;;;27.30;;
6689;SDS011;76797;51.590;8.116;2024-03-08T01:15:04;33.23;;;27.17;;
6689;SDS011;76797;51.590;8.116;2024-03-08T01:17:30;32.47;;;28.27;;
6689;SDS011;76797;51.590;8.116;2024-03-08T01:19:56;37.83;;;28.13;;
6689;SDS011;76797;51.590;8.116;2024-03-08T01:22:21;35.87;;;28.27;;
6689;SDS011;76797;51.590;8.116;2024-03-08T01:24:47;34.13;;;26.87;;
6689;SDS011;76797;51.590;8.116;2024-03-08T01:27:13;35.53;;;27.90;;
6689;SDS011;76797;51.590;8.116;2024-03-08T01:29:39;37.33;;;29.00;;
6689;SDS011;76797;51.590;8.116;2024-03-08T01:32:04;34.80;;;29.03;;
6689;SDS011;76797;51.590;8.116;2024-03-08T01:34:31;33.90;;;28.80;;
6689;SDS011;76797;51.590;8.116;2024-03-08T01:36:58;35.10;;;29.00;;
6689;SDS011;76797;51.590;8.116;2024-03-08T01:39:24;35.27;;;29.03;;
6689;SDS011;76797;51.590;8.116;2024-03-08T01:41:50;34.70;;;28.40;;
6689;SDS011;76797;51.590;8.116;2024-03-08T01:44:16;35.60;;;29.80;;
6689;SDS011;76797;51.590;8.116;2024-03-08T01:46:45;36.20;;;29.07;;
6689;SDS011;76797;51.590;8.116;2024-03-08T01:49:12;39.23;;;29.83;;
6689;SDS011;76797;51.590;8.116;2024-03-08T01:51:39;34.30;;;27.87;;
6689;SDS011;76797;51.590;8.116;2024-03-08T01:54:06;36.27;;;28.47;;
6689;SDS011;76797;51.590;8.116;2024-03-08T01:56:34;36.73;;;29.63;;
6689;SDS011;76797;51.590;8.116;2024-03-08T01:59:01;34.70;;;28.67;;
6689;SDS011;76797;51.590;8.116;2024-03-08T02:01:27;36.63;;;29.30;;
6689;SDS011;76797;51.590;8.116;2024-03-08T02:03:53;39.57;;;28.97;;
6689;SDS011;76797;51.590;8.116;2024-03-08T02:06:19;39.23;;;29.50;;
6689;SDS011;76797;51.590;8.116;2024-03-08T02:08:45;38.00;;;29.10;;
6689;SDS011;76797;51.590;8.116;2024-03-08T02:11:11;36.27;;;28.37;;
6689;SDS011;76797;51.590;8.116;2024-03-08T02:13:37;37.63;;;28.73;;
6689;SDS011;76797;51.590;8.116;2024-03-08T02:16:02;36.73;;;29.33;;
6689;SDS011;76797;51.590;8.116;2024-03-08T02:18:29;35.83;;;28.10;;
6689;SDS011;76797;51.590;8.116;2024-03-08T02:20:56;35.80;;;27.57;;
6689;SDS011;76797;51.590;8.116;2024-03-08T02:23:25;35.67;;;28.57;;
6689;SDS011;76797;51.590;8.116;2024-03-08T02:25:51;32.37;;;27.70;;
6689;SDS011;76797;51.590;8.116;2024-03-08T02:28:18;38.53;;;28.57;;
6689;SDS011;76797;51.590;8.116;2024-03-08T02:30:44;33.63;;;27.23;;
6689;SDS011;76797;51.590;8.116;2024-03-08T02:33:13;34.57;;;27.03;;
6689;SDS011;76797;51.590;8.116;2024-03-08T02:35:43;35.53;;;28.57;;
6689;SDS011;76797;51.590;8.116;2024-03-08T02:38:12;34.80;;;26.57;;
6689;SDS011;76797;51.590;8.116;2024-03-08T02:40:41;34.57;;;27.27;;
6689;SDS011;76797;51.590;8.116;2024-03-08T02:43:08;34.10;;;27.33;;
6689;SDS011;76797;51.590;8.116;2024-03-08T02:45:34;33.63;;;26.80;;
6689;SDS011;76797;51.590;8.116;2024-03-08T02:48:00;34.23;;;28.17;;
6689;SDS011;76797;51.590;8.116;2024-03-08T02:50:25;37.20;;;28.47;;
6689;SDS011;76797;51.590;8.116;2024-03-08T02:52:51;34.10;;;27.37;;
6689;SDS011;76797;51.590;8.116;2024-03-08T02:55:16;34.77;;;27.37;;
6689;SDS011;76797;51.590;8.116;2024-03-08T02:57:42;38.77;;;28.37;;
6689;SDS011;76797;51.590;8.116;2024-03-08T03:00:08;39.30;;;28.53;;
6689;SDS011;76797;51.590;8.116;2024-03-08T03:02:35;37.30;;;27.47;;
6689;SDS011;76797;51.590;8.116;2024-03-08T03:05:00;38.33;;;28.27;;
6689;SDS011;76797;51.590;8.116;2024-03-08T03:07:34;38.40;;;28.60;;
6689;SDS011;76797;51.590;8.116;2024-03-08T03:09:59;36.97;;;29.03;;
6689;SDS011;76797;51.590;8.116;2024-03-08T03:12:26;34.57;;;27.77;;
6689;SDS011;76797;51.590;8.116;2024-03-08T03:14:55;37.60;;;28.93;;
6689;SDS011;76797;51.590;8.116;2024-03-08T03:17:21;38.07;;;29.63;;
6689;SDS011;76797;51.590;8.116;2024-03-08T03:19:48;36.13;;;28.47;;
6689;SDS011;76797;51.590;8.116;2024-03-08T03:22:14;36.00;;;28.27;;
6689;SDS011;76797;51.590;8.116;2024-03-08T03:24:40;35.63;;;27.53;;
6689;SDS011;76797;51.590;8.116;2024-03-08T03:27:07;35.47;;;27.90;;
6689;SDS011;76797;51.590;8.116;2024-03-08T03:29:42;35.10;;;27.57;;
6689;SDS011;76797;51.590;8.116;2024-03-08T03:32:12;37.83;;;28.50;;
6689;SDS011;76797;51.590;8.116;2024-03-08T03:34:38;37.20;;;27.27;;
6689;SDS011;76797;51.590;8.116;2024-03-08T03:37:04;36.37;;;29.67;;
6689;SDS011;76797;51.590;8.116;2024-03-08T03:39:32;34.07;;;27.57;;
6689;SDS011;76797;51.590;8.116;2024-03-08T03:41:59;43.97;;;30.80;;
6689;SDS011;76797;51.590;8.116;2024-03-08T03:44:27;34.60;;;28.20;;
6689;SDS011;76797;51.590;8.116;2024-03-08T03:46:52;37.33;;;28.70;;
6689;SDS011;76797;51.590;8.116;2024-03-08T03:49:18;35.73;;;28.17;;
6689;SDS011;76797;51.590;8.116;2024-03-08T03:51:44;34.00;;;27.50;;
6689;SDS011;76797;51.590;8.116;2024-03-08T03:54:10;38.80;;;29.03;;
6689;SDS011;76797;51.590;8.116;2024-03-08T03:56:35;36.80;;;28.30;;
6689;SDS011;76797;51.590;8.116;2024-03-08T03:59:01;40.03;;;27.17;;
6689;SDS011;76797;51.590;8.116;2024-03-08T04:01:26;34.17;;;26.93;;
6689;SDS011;76797;51.590;8.116;2024-03-08T04:03:52;35.17;;;26.97;;
6689;SDS011;76797;51.590;8.116;2024-03-08T04:06:18;35.13;;;28.30;;
6689;SDS011;76797;51.590;8.116;2024-03-08T04:08:43;37.83;;;27.93;;
6689;SDS011;76797;51.590;8.116;2024-03-08T04:11:09;34.57;;;27.37;;
6689;SDS011;76797;51.590;8.116;2024-03-08T04:13:34;34.93;;;27.47;;
6689;SDS011;76797;51.590;8.116;2024-03-08T04:16:01;37.57;;;29.50;;
6689;SDS011;76797;51.590;8.116;2024-03-08T04:18:27;41.03;;;29.40;;
6689;SDS011;76797;51.590;8.116;2024-03-08T04:20:53;37.03;;;29.27;;
6689;SDS011;76797;51.590;8.116;2024-03-08T04:23:19;42.47;;;29.40;;
6689;SDS011;76797;51.590;8.116;2024-03-08T04:25:44;39.50;;;29.03;;
6689;SDS011;76797;51.590;8.116;2024-03-08T04:28:10;33.87;;;27.70;;
6689;SDS011;76797;51.590;8.116;2024-03-08T04:30:37;41.57;;;30.03;;
6689;SDS011;76797;51.590;8.116;2024-03-08T04:33:03;36.37;;;29.27;;
6689;SDS011;76797;51.590;8.116;2024-03-08T04:35:28;38.80;;;29.70;;
6689;SDS011;76797;51.590;8.116;2024-03-08T04:37:55;38.47;;;29.53;;
6689;SDS011;76797;51.590;8.116;2024-03-08T04:40:22;44.27;;;30.43;;
6689;SDS011;76797;51.590;8.116;2024-03-08T04:42:48;37.13;;;29.07;;
6689;SDS011;76797;51.590;8.116;2024-03-08T04:45:16;33.17;;;28.57;;
6689;SDS011;76797;51.590;8.116;2024-03-08T04:47:42;36.50;;;29.47;;
6689;SDS011;76797;51.590;8.116;2024-03-08T04:50:08;35.90;;;28.47;;
6689;SDS011;76797;51.590;8.116;2024-03-08T04:52:36;35.50;;;29.03;;
6689;SDS011;76797;51.590;8.116;2024-03-08T04:55:02;37.43;;;28.73;;
6689;SDS011;76797;51.590;8.116;2024-03-08T04:57:30;38.17;;;30.57;;
6689;SDS011;76797;51.590;8.116;2024-03-08T04:59:55;39.93;;;31.00;;
6689;SDS011;76797;51.590;8.116;2024-03-08T05:02:21;37.33;;;28.83;;
6689;SDS011;76797;51.590;8.116;2024-03-08T05:04:47;41.40;;;30.83;;
6689;SDS011;76797;51.590;8.116;2024-03-08T05:07:13;43.03;;;31.30;;
6689;SDS011;76797;51.590;8.116;2024-03-08T05:09:38;41.37;;;30.23;;
6689;SDS011;76797;51.590;8.116;2024-03-08T05:12:06;37.03;;;29.00;;
6689;SDS011;76797;51.590;8.116;2024-03-08T05:14:31;39.87;;;30.77;;
6689;SDS011;76797;51.590;8.116;2024-03-08T05:16:57;42.00;;;30.27;;
6689;SDS011;76797;51.590;8.116;2024-03-08T05:19:22;37.03;;;29.70;;
6689;SDS011;76797;51.590;8.116;2024-03-08T05:21:48;42.27;;;31.90;;
6689;SDS011;76797;51.590;8.116;2024-03-08T05:24:15;35.87;;;29.50;;
6689;SDS011;76797;51.590;8.116;2024-03-08T05:26:41;36.87;;;28.83;;
6689;SDS011;76797;51.590;8.116;2024-03-08T05:29:07;41.07;;;31.93;;
6689;SDS011;76797;51.590;8.116;2024-03-08T05:31:38;43.07;;;30.07;;
6689;SDS011;76797;51.590;8.116;2024-03-08T05:34:18;40.27;;;31.77;;
6689;SDS011;76797;51.590;8.116;2024-03-08T05:36:49;42.70;;;31.40;;
6689;SDS011;76797;51.590;8.116;2024-03-08T05:39:16;42.27;;;31.00;;
6689;SDS011;76797;51.590;8.116;2024-03-08T05:41:42;41.60;;;30.97;;
6689;SDS011;76797;51.590;8.116;2024-03-08T05:44:08;40.27;;;29.77;;
6689;SDS011;76797;51.590;8.116;2024-03-08T05:46:35;42.13;;;31.37;;
6689;SDS011;76797;51.590;8.116;2024-03-08T05:49:02;41.50;;;31.63;;
6689;SDS011;76797;51.590;8.116;2024-03-08T05:51:33;44.80;;;34.53;;
6689;SDS011;76797;51.590;8.116;2024-03-08T05:54:01;46.17;;;33.10;;
6689;SDS011;76797;51.590;8.116;2024-03-08T05:56:27;51.37;;;33.63;;
6689;SDS011;76797;51.590;8.116;2024-03-08T05:58:54;47.67;;;33.70;;
6689;SDS011;76797;51.590;8.116;2024-03-08T06:01:19;47.90;;;31.83;;
6689;SDS011;76797;51.590;8.116;2024-03-08T06:03:45;41.60;;;32.73;;
6689;SDS011;76797;51.590;8.116;2024-03-08T06:06:12;47.90;;;31.90;;
6689;SDS011;76797;51.590;8.116;2024-03-08T06:08:38;41.63;;;32.17;;
6689;SDS011;76797;51.590;8.116;2024-03-08T06:11:04;44.20;;;32.43;;
6689;SDS011;76797;51.590;8.116;2024-03-08T06:13:30;44.87;;;31.93;;
6689;SDS011;76797;51.590;8.116;2024-03-08T06:15:56;46.83;;;33.83;;
6689;SDS011;76797;51.590;8.116;2024-03-08T06:18:22;43.13;;;32.47;;
6689;SDS011;76797;51.590;8.116;2024-03-08T06:20:47;44.23;;;32.97;;
6689;SDS011;76797;51.590;8.116;2024-03-08T06:23:13;43.50;;;33.27;;
6689;SDS011;76797;51.590;8.116;2024-03-08T06:25:42;43.33;;;31.93;;
6689;SDS011;76797;51.590;8.116;2024-03-08T06:28:08;39.30;;;32.33;;
6689;SDS011;76797;51.590;8.116;2024-03-08T06:30:34;43.57;;;31.10;;
6689;SDS011;76797;51.590;8.116;2024-03-08T06:33:00;43.67;;;32.90;;
6689;SDS011;76797;51.590;8.116;2024-03-08T06:35:26;43.13;;;32.53;;
6689;SDS011;76797;51.590;8.116;2024-03-08T06:37:51;43.87;;;32.77;;
6689;SDS011;76797;51.590;8.116;2024-03-08T06:40:17;41.97;;;32.70;;
6689;SDS011;76797;51.590;8.116;2024-03-08T06:42:42;41.57;;;32.07;;
6689;SDS011;76797;51.590;8.116;2024-03-08T06:45:08;44.40;;;33.40;;
6689;SDS011;76797;51.590;8.116;2024-03-08T06:47:35;46.73;;;33.60;;
6689;SDS011;76797;51.590;8.116;2024-03-08T06:50:01;41.83;;;32.83;;
6689;SDS011;76797;51.590;8.116;2024-03-08T06:52:27;43.17;;;33.03;;
6689;SDS011;76797;51.590;8.116;2024-03-08T06:54:53;45.23;;;33.00;;
6689;SDS011;76797;51.590;8.116;2024-03-08T06:57:18;40.37;;;32.30;;
6689;SDS011;76797;51.590;8.116;2024-03-08T06:59:47;42.53;;;31.47;;
6689;SDS011;76797;51.590;8.116;2024-03-08T07:02:13;43.40;;;32.03;;
6689;SDS011;76797;51.590;8.116;2024-03-08T07:04:38;42.00;;;32.13;;
6689;SDS011;76797;51.590;8.116;2024-03-08T07:07:04;44.10;;;32.33;;
6689;SDS011;76797;51.590;8.116;2024-03-08T07:09:30;43.63;;;32.63;;
6689;SDS011;76797;51.590;8.116;2024-03-08T07:11:55;43.27;;;32.47;;
6689;SDS011;76797;51.590;8.116;2024-03-08T07:14:21;47.67;;;34.13;;
6689;SDS011;76797;51.590;8.116;2024-03-08T07:16:47;42.57;;;32.63;;
6689;SDS011;76797;51.590;8.116;2024-03-08T07:19:13;44.60;;;33.03;;
6689;SDS011;76797;51.590;8.116;2024-03-08T07:21:39;42.37;;;32.23;;
6689;SDS011;76797;51.590;8.116;2024-03-08T07:24:04;43.07;;;29.63;;
6689;SDS011;76797;51.590;8.116;2024-03-08T07:26:42;48.57;;;33.27;;
6689;SDS011;76797;51.590;8.116;2024-03-08T07:29:08;44.63;;;32.47;;
6689;SDS011;76797;51.590;8.116;2024-03-08T07:31:34;43.77;;;32.87;;
6689;SDS011;76797;51.590;8.116;2024-03-08T07:34:10;41.23;;;30.60;;
6689;SDS011;76797;51.590;8.116;2024-03-08T07:36:36;42.60;;;29.73;;
6689;SDS011;76797;51.590;8.116;2024-03-08T07:39:01;36.37;;;27.63;;
6689;SDS011;76797;51.590;8.116;2024-03-08T07:41:27;41.90;;;29.23;;
6689;SDS011;76797;51.590;8.116;2024-03-08T07:43:55;45.63;;;34.03;;
6689;SDS011;76797;51.590;8.116;2024-03-08T07:46:20;46.33;;;32.87;;
6689;SDS011;76797;51.590;8.116;2024-03-08T07:48:46;45.57;;;33.17;;
6689;SDS011;76797;51.590;8.116;2024-03-08T07:51:11;52.07;;;34.33;;
6689;SDS011;76797;51.590;8.116;2024-03-08T07:53:37;41.97;;;31.53;;
6689;SDS011;76797;51.590;8.116;2024-03-08T07:56:03;44.17;;;32.30;;
6689;SDS011;76797;51.590;8.116;2024-03-08T07:58:32;47.23;;;32.97;;
6689;SDS011;76797;51.590;8.116;2024-03-08T08:00:57;41.80;;;31.57;;
6689;SDS011;76797;51.590;8.116;2024-03-08T08:03:23;42.33;;;32.43;;
6689;SDS011;76797;51.590;8.116;2024-03-08T08:05:49;44.00;;;33.30;;
6689;SDS011;76797;51.590;8.116;2024-03-08T08:08:14;44.20;;;32.30;;
6689;SDS011;76797;51.590;8.116;2024-03-08T08:10:40;45.30;;;32.97;;
6689;SDS011;76797;51.590;8.116;2024-03-08T08:13:05;41.70;;;32.50;;
6689;SDS011;76797;51.590;8.116;2024-03-08T08:15:31;41.63;;;31.73;;
6689;SDS011;76797;51.590;8.116;2024-03-08T08:17:59;45.93;;;32.37;;
6689;SDS011;76797;51.590;8.116;2024-03-08T08:20:25;45.10;;;31.83;;
6689;SDS011;76797;51.590;8.116;2024-03-08T08:22:51;41.87;;;32.17;;
6689;SDS011;76797;51.590;8.116;2024-03-08T08:25:17;42.10;;;31.63;;
6689;SDS011;76797;51.590;8.116;2024-03-08T08:27:45;41.47;;;32.70;;
6689;SDS011;76797;51.590;8.116;2024-03-08T08:30:11;44.13;;;33.20;;
6689;SDS011;76797;51.590;8.116;2024-03-08T08:32:38;41.03;;;31.67;;
6689;SDS011;76797;51.590;8.116;2024-03-08T08:35:04;45.93;;;34.03;;
6689;SDS011;76797;51.590;8.116;2024-03-08T08:37:34;45.53;;;34.13;;
6689;SDS011;76797;51.590;8.116;2024-03-08T08:40:02;40.43;;;32.83;;
6689;SDS011;76797;51.590;8.116;2024-03-08T08:42:33;40.87;;;32.13;;
6689;SDS011;76797;51.590;8.116;2024-03-08T08:44:59;40.13;;;31.27;;
6689;SDS011;76797;51.590;8.116;2024-03-08T08:47:24;39.67;;;31.37;;
6689;SDS011;76797;51.590;8.116;2024-03-08T08:49:50;36.63;;;30.40;;
6689;SDS011;76797;51.590;8.116;2024-03-08T08:52:16;39.90;;;30.20;;
6689;SDS011;76797;51.590;8.116;2024-03-08T08:54:41;42.27;;;32.03;;
6689;SDS011;76797;51.590;8.116;2024-03-08T08:57:07;39.73;;;30.70;;
6689;SDS011;76797;51.590;8.116;2024-03-08T08:59:33;39.63;;;30.17;;
6689;SDS011;76797;51.590;8.116;2024-03-08T09:02:04;39.23;;;31.83;;
6689;SDS011;76797;51.590;8.116;2024-03-08T09:04:31;37.63;;;29.20;;
6689;SDS011;76797;51.590;8.116;2024-03-08T09:06:57;38.23;;;32.17;;
6689;SDS011;76797;51.590;8.116;2024-03-08T09:09:22;39.83;;;32.47;;
6689;SDS011;76797;51.590;8.116;2024-03-08T09:11:48;39.30;;;33.57;;
6689;SDS011;76797;51.590;8.116;2024-03-08T09:14:14;38.13;;;29.93;;
6689;SDS011;76797;51.590;8.116;2024-03-08T09:16:40;37.30;;;30.27;;
6689;SDS011;76797;51.590;8.116;2024-03-08T09:19:06;37.87;;;29.33;;
6689;SDS011;76797;51.590;8.116;2024-03-08T09:21:32;36.83;;;29.47;;
6689;SDS011;76797;51.590;8.116;2024-03-08T09:23:57;31.20;;;26.13;;
6689;SDS011;76797;51.590;8.116;2024-03-08T09:26:23;31.53;;;26.17;;
6689;SDS011;76797;51.590;8.116;2024-03-08T09:28:49;33.97;;;26.83;;
6689;SDS011;76797;51.590;8.116;2024-03-08T09:31:14;31.40;;;24.93;;
6689;SDS011;76797;51.590;8.116;2024-03-08T09:33:41;31.53;;;22.07;;
6689;SDS011;76797;51.590;8.116;2024-03-08T09:36:07;34.27;;;27.87;;
6689;SDS011;76797;51.590;8.116;2024-03-08T09:38:33;29.57;;;24.83;;
6689;SDS011;76797;51.590;8.116;2024-03-08T09:41:01;31.60;;;26.13;;
6689;SDS011;76797;51.590;8.116;2024-03-08T09:43:28;33.63;;;26.70;;
6689;SDS011;76797;51.590;8.116;2024-03-08T09:45:55;34.50;;;28.37;;
6689;SDS011;76797;51.590;8.116;2024-03-08T09:48:21;33.83;;;27.10;;
6689;SDS011;76797;51.590;8.116;2024-03-08T09:50:47;35.23;;;28.83;;
6689;SDS011;76797;51.590;8.116;2024-03-08T09:53:14;35.07;;;29.13;;
6689;SDS011;76797;51.590;8.116;2024-03-08T09:55:40;33.30;;;27.20;;
6689;SDS011;76797;51.590;8.116;2024-03-08T09:58:10;31.23;;;24.67;;
6689;SDS011;76797;51.590;8.116;2024-03-08T10:01:01;33.70;;;25.90;;
6689;SDS011;76797;51.590;8.116;2024-03-08T10:03:29;29.27;;;24.50;;
6689;SDS011;76797;51.590;8.116;2024-03-08T10:05:58;29.07;;;23.60;;
6689;SDS011;76797;51.590;8.116;2024-03-08T10:08:29;26.80;;;19.90;;
6689;SDS011;76797;51.590;8.116;2024-03-08T10:10:55;25.00;;;18.67;;
6689;SDS011;76797;51.590;8.116;2024-03-08T10:13:23;24.23;;;19.30;;
6689;SDS011;76797;51.590;8.116;2024-03-08T10:15:51;22.13;;;19.00;;
6689;SDS011;76797;51.590;8.116;2024-03-08T10:18:17;19.80;;;16.00;;
6689;SDS011;76797;51.590;8.116;2024-03-08T10:20:43;22.27;;;16.83;;
6689;SDS011;76797;51.590;8.116;2024-03-08T10:23:08;20.33;;;16.47;;
6689;SDS011;76797;51.590;8.116;2024-03-08T10:25:35;21.30;;;15.53;;
6689;SDS011;76797;51.590;8.116;2024-03-08T10:28:04;21.33;;;16.10;;
6689;SDS011;76797;51.590;8.116;2024-03-08T10:30:31;18.73;;;14.13;;
6689;SDS011;76797;51.590;8.116;2024-03-08T10:32:57;20.83;;;17.43;;
6689;SDS011;76797;51.590;8.116;2024-03-08T10:35:23;17.03;;;13.10;;
6689;SDS011;76797;51.590;8.116;2024-03-08T10:37:50;24.63;;;16.67;;
6689;SDS011;76797;51.590;8.116;2024-03-08T10:40:27;21.13;;;17.43;;
6689;SDS011;76797;51.590;8.116;2024-03-08T10:42:57;19.73;;;16.70;;
6689;SDS011;76797;51.590;8.116;2024-03-08T10:45:36;19.00;;;16.53;;
6689;SDS011;76797;51.590;8.116;2024-03-08T10:50:41;19.83;;;15.77;;
6689;SDS011;76797;51.590;8.116;2024-03-08T10:53:10;18.83;;;16.13;;
6689;SDS011;76797;51.590;8.116;2024-03-08T10:55:38;18.07;;;15.40;;
6689;SDS011;76797;51.590;8.116;2024-03-08T10:58:05;21.37;;;13.67;;
6689;SDS011;76797;51.590;8.116;2024-03-08T11:00:33;17.20;;;14.43;;
6689;SDS011;76797;51.590;8.116;2024-03-08T11:02:59;15.80;;;12.60;;
6689;SDS011;76797;51.590;8.116;2024-03-08T11:05:40;21.47;;;15.93;;
6689;SDS011;76797;51.590;8.116;2024-03-08T11:08:16;21.60;;;16.87;;
6689;SDS011;76797;51.590;8.116;2024-03-08T11:10:52;18.10;;;14.90;;
6689;SDS011;76797;51.590;8.116;2024-03-08T11:16:12;20.77;;;16.17;;
6689;SDS011;76797;51.590;8.116;2024-03-08T11:21:35;19.73;;;16.27;;
6689;SDS011;76797;51.590;8.116;2024-03-08T11:24:08;16.67;;;14.40;;
6689;SDS011;76797;51.590;8.116;2024-03-08T11:26:38;20.90;;;14.57;;
6689;SDS011;76797;51.590;8.116;2024-03-08T11:34:42;20.53;;;16.93;;
6689;SDS011;76797;51.590;8.116;2024-03-08T11:37:13;19.50;;;17.30;;
6689;SDS011;76797;51.590;8.116;2024-03-08T11:39:40;20.20;;;17.60;;
6689;SDS011;76797;51.590;8.116;2024-03-08T11:42:16;33.43;;;17.90;;
6689;SDS011;76797;51.590;8.116;2024-03-08T11:44:42;22.93;;;16.57;;
6689;SDS011;76797;51.590;8.116;2024-03-08T11:47:09;23.07;;;19.00;;
6689;SDS011;76797;51.590;8.116;2024-03-08T11:49:36;21.37;;;18.63;;
6689;SDS011;76797;51.590;8.116;2024-03-08T11:52:02;20.90;;;17.63;;
6689;SDS011;76797;51.590;8.116;2024-03-08T11:54:28;23.43;;;18.70;;
6689;SDS011;76797;51.590;8.116;2024-03-08T11:56:57;24.97;;;17.53;;
6689;SDS011;76797;51.590;8.116;2024-03-08T11:59:26;21.30;;;18.30;;
6689;SDS011;76797;51.590;8.116;2024-03-08T12:01:59;21.13;;;17.77;;
6689;SDS011;76797;51.590;8.116;2024-03-08T12:04:29;21.10;;;18.60;;
6689;SDS011;76797;51.590;8.116;2024-03-08T12:06:55;22.00;;;18.00;;
6689;SDS011;76797;51.590;8.116;2024-03-08T12:09:23;21.37;;;17.70;;
6689;SDS011;76797;51.590;8.116;2024-03-08T12:11:49;20.67;;;17.63;;
6689;SDS011;76797;51.590;8.116;2024-03-08T12:14:15;21.93;;;18.30;;
6689;SDS011;76797;51.590;8.116;2024-03-08T12:16:42;20.43;;;17.03;;
6689;SDS011;76797;51.590;8.116;2024-03-08T12:19:07;21.00;;;16.80;;
6689;SDS011;76797;51.590;8.116;2024-03-08T12:21:34;19.47;;;17.37;;
6689;SDS011;76797;51.590;8.116;2024-03-08T12:24:04;23.47;;;18.83;;
6689;SDS011;76797;51.590;8.116;2024-03-08T12:26:37;23.43;;;20.67;;
6689;SDS011;76797;51.590;8.116;2024-03-08T12:31:52;27.33;;;20.83;;
6689;SDS011;76797;51.590;8.116;2024-03-08T12:34:26;24.97;;;21.47;;
6689;SDS011;76797;51.590;8.116;2024-03-08T12:36:53;23.73;;;21.03;;
6689;SDS011;76797;51.590;8.116;2024-03-08T12:39:20;24.07;;;19.53;;
6689;SDS011;76797;51.590;8.116;2024-03-08T12:41:52;22.53;;;19.90;;
6689;SDS011;76797;51.590;8.116;2024-03-08T12:44:19;21.43;;;19.13;;
6689;SDS011;76797;51.590;8.116;2024-03-08T12:46:46;26.23;;;19.80;;
6689;SDS011;76797;51.590;8.116;2024-03-08T12:49:13;20.67;;;17.37;;
6689;SDS011;76797;51.590;8.116;2024-03-08T12:51:42;23.67;;;20.67;;
6689;SDS011;76797;51.590;8.116;2024-03-08T12:54:08;21.50;;;19.20;;
6689;SDS011;76797;51.590;8.116;2024-03-08T12:56:34;21.63;;;18.83;;
6689;SDS011;76797;51.590;8.116;2024-03-08T12:59:02;22.03;;;18.73;;
6689;SDS011;76797;51.590;8.116;2024-03-08T13:01:30;23.87;;;18.63;;
6689;SDS011;76797;51.590;8.116;2024-03-08T13:03:59;22.37;;;19.33;;
6689;SDS011;76797;51.590;8.116;2024-03-08T13:06:28;23.07;;;18.83;;
6689;SDS011;76797;51.590;8.116;2024-03-08T13:08:54;22.70;;;20.30;;
6689;SDS011;76797;51.590;8.116;2024-03-08T13:11:20;23.93;;;19.40;;
6689;SDS011;76797;51.590;8.116;2024-03-08T13:13:50;23.43;;;19.73;;
6689;SDS011;76797;51.590;8.116;2024-03-08T13:16:16;23.77;;;21.17;;
6689;SDS011;76797;51.590;8.116;2024-03-08T13:18:44;24.93;;;17.80;;
6689;SDS011;76797;51.590;8.116;2024-03-08T13:21:10;24.07;;;19.77;;
6689;SDS011;76797;51.590;8.116;2024-03-08T13:23:38;25.50;;;21.10;;
6689;SDS011;76797;51.590;8.116;2024-03-08T13:26:08;23.63;;;20.60;;
6689;SDS011;76797;51.590;8.116;2024-03-08T13:28:47;26.00;;;19.03;;
6689;SDS011;76797;51.590;8.116;2024-03-08T13:31:18;22.37;;;18.87;;
6689;SDS011;76797;51.590;8.116;2024-03-08T13:33:44;24.73;;;22.03;;
6689;SDS011;76797;51.590;8.116;2024-03-08T13:36:12;26.20;;;21.03;;
6689;SDS011;76797;51.590;8.116;2024-03-08T13:38:45;22.67;;;18.70;;
6689;SDS011;76797;51.590;8.116;2024-03-08T13:41:12;24.17;;;19.70;;
6689;SDS011;76797;51.590;8.116;2024-03-08T13:43:43;27.07;;;20.63;;
6689;SDS011;76797;51.590;8.116;2024-03-08T13:46:10;23.33;;;20.03;;
6689;SDS011;76797;51.590;8.116;2024-03-08T13:48:36;23.77;;;19.47;;
6689;SDS011;76797;51.590;8.116;2024-03-08T13:51:02;21.63;;;19.07;;
6689;SDS011;76797;51.590;8.116;2024-03-08T13:53:31;22.57;;;18.63;;
6689;SDS011;76797;51.590;8.116;2024-03-08T13:55:58;25.03;;;20.93;;
6689;SDS011;76797;51.590;8.116;2024-03-08T13:58:24;23.87;;;20.03;;
6689;SDS011;76797;51.590;8.116;2024-03-08T14:00:49;24.13;;;21.30;;
6689;SDS011;76797;51.590;8.116;2024-03-08T14:03:16;24.47;;;20.07;;
6689;SDS011;76797;51.590;8.116;2024-03-08T14:05:42;24.63;;;20.53;;
6689;SDS011;76797;51.590;8.116;2024-03-08T14:08:08;22.77;;;20.17;;
6689;SDS011;76797;51.590;8.116;2024-03-08T14:10:34;25.07;;;20.60;;
6689;SDS011;76797;51.590;8.116;2024-03-08T14:13:02;24.07;;;19.13;;
6689;SDS011;76797;51.590;8.116;2024-03-08T14:15:29;22.60;;;19.27;;
6689;SDS011;76797;51.590;8.116;2024-03-08T14:17:56;23.27;;;19.30;;
6689;SDS011;76797;51.590;8.116;2024-03-08T14:20:22;21.93;;;17.47;;
6689;SDS011;76797;51.590;8.116;2024-03-08T14:22:51;23.17;;;18.13;;
6689;SDS011;76797;51.590;8.116;2024-03-08T14:25:17;20.63;;;17.60;;
6689;SDS011;76797;51.590;8.116;2024-03-08T14:27:44;23.63;;;18.63;;
6689;SDS011;76797;51.590;8.116;2024-03-08T14:30:10;24.03;;;19.80;;
6689;SDS011;76797;51.590;8.116;2024-03-08T14:32:36;22.30;;;19.30;;
6689;SDS011;76797;51.590;8.116;2024-03-08T14:35:03;24.43;;;19.33;;
6689;SDS011;76797;51.590;8.116;2024-03-08T14:37:30;21.90;;;17.53;;
6689;SDS011;76797;51.590;8.116;2024-03-08T14:39:55;22.90;;;19.23;;
6689;SDS011;76797;51.590;8.116;2024-03-08T14:42:21;23.30;;;18.13;;
6689;SDS011;76797;51.590;8.116;2024-03-08T14:44:47;22.03;;;19.23;;
6689;SDS011;76797;51.590;8.116;2024-03-08T14:47:19;24.17;;;19.10;;
6689;SDS011;76797;51.590;8.116;2024-03-08T14:49:44;23.13;;;19.00;;